createdAt,value
2022-12-20T00:02:24.543Z,68.58
2022-12-20T00:04:55.004Z,68.67
2022-12-20T00:07:25.412Z,68.48
2022-12-20T00:09:55.827Z,68.44
2022-12-20T00:12:26.551Z,68.52
2022-12-20T00:14:57.001Z,68.47
2022-12-20T00:17:27.487Z,68.33
2022-12-20T00:19:57.921Z,68.35
2022-12-20T00:22:28.452Z,68.26
2022-12-20T00:24:58.865Z,68.15
2022-12-20T00:27:29.956Z,67.94
2022-12-20T00:30:00.382Z,68.05
2022-12-20T00:32:31.439Z,67.85
2022-12-20T00:35:01.938Z,67.77
2022-12-20T00:37:32.442Z,67.75
2022-12-20T00:40:03.336Z,67.91
2022-12-20T00:42:34.901Z,67.77
2022-12-20T00:45:05.904Z,67.63
2022-12-20T00:47:36.341Z,67.62
2022-12-20T00:50:08.793Z,67.72
2022-12-20T00:52:39.309Z,67.59
2022-12-20T00:55:10.893Z,67.62
2022-12-20T00:57:41.339Z,67.63
2022-12-20T01:00:13.867Z,67.54
2022-12-20T01:02:44.694Z,67.38
2022-12-20T01:05:15.359Z,67.67
2022-12-20T01:07:45.966Z,67.54
2022-12-20T01:10:16.509Z,67.55
2022-12-20T01:12:46.957Z,67.53
2022-12-20T01:15:17.656Z,67.41
2022-12-20T01:17:48.383Z,67.43
2022-12-20T01:20:19.202Z,67.00
2022-12-20T01:22:49.967Z,67.00
2022-12-20T01:25:20.452Z,66.99
2022-12-20T01:27:50.944Z,66.83
2022-12-20T01:30:21.860Z,66.68
2022-12-20T01:32:52.311Z,66.53
2022-12-20T01:35:22.740Z,66.55
2022-12-20T01:37:53.145Z,66.55
2022-12-20T01:40:23.774Z,66.50
2022-12-20T01:42:54.284Z,66.58
2022-12-20T01:45:29.968Z,66.36
2022-12-20T01:48:02.429Z,66.41
2022-12-20T01:50:33.324Z,66.21
2022-12-20T01:53:05.733Z,66.21
2022-12-20T01:55:38.118Z,65.80
2022-12-20T01:58:13.352Z,65.96
2022-12-20T02:00:43.930Z,65.94
2022-12-20T02:03:16.097Z,65.93
2022-12-20T02:05:47.880Z,65.89
2022-12-20T02:08:20.625Z,65.90
2022-12-20T02:10:59.436Z,65.69
2022-12-20T02:13:48.651Z,65.71
2022-12-20T02:16:27.067Z,65.66
2022-12-20T02:19:06.645Z,65.65
2022-12-20T02:21:44.334Z,65.76
2022-12-20T02:24:53.411Z,65.67
2022-12-20T02:27:53.994Z,65.43
2022-12-20T02:30:29.039Z,65.41
2022-12-20T02:33:04.189Z,65.43
2022-12-20T02:35:37.366Z,65.33
2022-12-20T02:38:29.410Z,65.30
2022-12-20T02:41:04.988Z,65.14
2022-12-20T02:43:57.612Z,65.18
2022-12-20T02:46:29.230Z,65.13
2022-12-20T02:49:04.406Z,65.18
2022-12-20T02:51:35.858Z,64.92
2022-12-20T02:54:07.106Z,64.85
2022-12-20T02:56:43.120Z,64.82
2022-12-20T02:59:19.448Z,64.75
2022-12-20T03:01:52.873Z,64.76
2022-12-20T03:04:27.171Z,64.60
2022-12-20T03:07:03.216Z,64.64
2022-12-20T03:09:36.346Z,64.42
2022-12-20T03:12:08.158Z,64.10
2022-12-20T03:14:40.351Z,64.16
2022-12-20T03:17:12.633Z,63.93
2022-12-20T03:19:43.117Z,64.07
2022-12-20T03:22:13.623Z,63.98
2022-12-20T03:24:44.060Z,63.92
2022-12-20T03:27:15.758Z,63.91
2022-12-20T03:29:46.977Z,63.76
2022-12-20T03:32:17.415Z,63.60
2022-12-20T03:34:48.308Z,63.61
2022-12-20T03:37:20.812Z,63.79
2022-12-20T03:39:51.441Z,63.60
2022-12-20T03:42:21.859Z,63.65
2022-12-20T03:44:52.673Z,63.48
2022-12-20T03:47:23.555Z,63.60
2022-12-20T03:49:54.124Z,63.52
2022-12-20T03:52:25.105Z,63.49
2022-12-20T03:54:55.753Z,63.52
2022-12-20T03:57:33.431Z,63.51
2022-12-20T04:00:04.335Z,63.47
2022-12-20T04:02:45.439Z,63.37
2022-12-20T04:05:17.133Z,63.47
2022-12-20T04:07:47.653Z,63.44
2022-12-20T04:10:18.180Z,63.40
2022-12-20T04:12:49.157Z,63.42
2022-12-20T04:15:20.086Z,63.48
2022-12-20T04:17:51.070Z,63.58
2022-12-20T04:20:22.720Z,63.30
2022-12-20T04:22:59.710Z,63.51
2022-12-20T04:25:30.231Z,63.44
2022-12-20T04:28:01.041Z,63.38
2022-12-20T04:30:31.638Z,63.43
2022-12-20T04:33:04.430Z,63.25
2022-12-20T04:35:33.710Z,63.15
2022-12-20T04:38:04.677Z,63.19
2022-12-20T04:40:35.144Z,63.03
2022-12-20T04:43:08.601Z,63.14
2022-12-20T04:45:39.104Z,63.08
2022-12-20T04:48:46.120Z,63.17
2022-12-20T04:51:00.675Z,63.36
2022-12-20T04:53:49.624Z,63.17
2022-12-20T04:56:49.643Z,63.12
2022-12-20T04:59:24.270Z,63.13
2022-12-20T05:01:56.272Z,63.31
2022-12-20T05:04:42.545Z,63.00
2022-12-20T05:07:13.006Z,63.33
2022-12-20T05:09:45.249Z,63.17
2022-12-20T05:12:15.725Z,63.32
2022-12-20T05:14:46.369Z,63.43
2022-12-20T05:17:18.442Z,63.28
2022-12-20T05:22:01.659Z,63.54
2022-12-20T05:24:50.610Z,63.78
2022-12-20T05:27:36.626Z,63.68
2022-12-20T05:30:10.136Z,63.62
2022-12-20T05:32:40.758Z,63.38
2022-12-20T05:35:12.228Z,63.32
2022-12-20T05:37:42.979Z,63.26
2022-12-20T05:40:18.815Z,63.06
2022-12-20T05:42:49.286Z,63.10
2022-12-20T05:45:20.345Z,63.02
2022-12-20T05:47:55.542Z,63.00
2022-12-20T05:50:26.434Z,62.99
2022-12-20T05:53:17.289Z,62.95
2022-12-20T05:55:54.055Z,62.97
2022-12-20T05:58:26.630Z,62.99
2022-12-20T06:01:03.112Z,62.80
2022-12-20T06:03:33.886Z,62.85
2022-12-20T06:06:14.084Z,62.88
2022-12-20T06:08:46.118Z,62.80
2022-12-20T06:11:29.431Z,62.86
2022-12-20T06:14:12.622Z,62.76
2022-12-20T06:16:47.826Z,62.83
2022-12-20T06:19:22.077Z,62.70
2022-12-20T06:21:55.676Z,62.80
2022-12-20T06:24:34.041Z,62.56
2022-12-20T06:27:07.084Z,62.70
2022-12-20T06:29:37.925Z,62.63
2022-12-20T06:32:13.001Z,62.60
2022-12-20T06:34:43.863Z,62.49
2022-12-20T06:37:15.415Z,62.87
2022-12-20T06:39:45.986Z,62.66
2022-12-20T06:42:17.631Z,62.80
2022-12-20T06:44:49.778Z,62.75
2022-12-20T06:47:20.272Z,62.76
2022-12-20T06:49:50.922Z,62.72
2022-12-20T06:52:25.951Z,62.78
2022-12-20T06:54:58.351Z,62.76
2022-12-20T06:57:28.830Z,62.74
2022-12-20T07:00:00.039Z,62.90
2022-12-20T07:02:30.701Z,62.69
2022-12-20T07:05:01.571Z,62.85
2022-12-20T07:07:32.060Z,62.81
2022-12-20T07:10:02.614Z,62.75
2022-12-20T07:12:33.555Z,63.04
2022-12-20T07:15:04.034Z,62.95
2022-12-20T07:17:34.773Z,62.91
2022-12-20T07:20:13.000Z,62.85
2022-12-20T07:22:44.380Z,62.90
2022-12-20T07:25:14.912Z,62.75
2022-12-20T07:27:47.425Z,62.79
2022-12-20T07:30:16.712Z,62.92
2022-12-20T07:32:47.873Z,63.01
2022-12-20T07:35:18.606Z,63.09
2022-12-20T07:37:49.223Z,63.04
2022-12-20T07:40:20.818Z,63.18
2022-12-20T07:42:51.276Z,63.11
2022-12-20T07:45:22.315Z,62.86
2022-12-20T07:47:52.818Z,63.12
2022-12-20T07:50:23.296Z,63.07
2022-12-20T07:52:54.685Z,63.00
2022-12-20T07:55:25.455Z,62.89
2022-12-20T07:58:03.422Z,62.71
2022-12-20T08:00:34.161Z,62.78
2022-12-20T08:03:09.813Z,62.89
2022-12-20T08:05:42.403Z,62.69
2022-12-20T08:08:11.408Z,62.78
2022-12-20T08:10:42.616Z,62.54
2022-12-20T08:13:13.696Z,62.34
2022-12-20T08:15:44.323Z,62.41
2022-12-20T08:18:16.243Z,62.56
2022-12-20T08:20:46.705Z,62.41
2022-12-20T08:23:17.132Z,62.03
2022-12-20T08:25:47.635Z,62.19
2022-12-20T08:28:18.174Z,62.26
2022-12-20T08:30:48.640Z,62.06
2022-12-20T08:33:19.853Z,61.89
2022-12-20T08:35:57.781Z,61.98
2022-12-20T08:38:30.993Z,61.87
2022-12-20T08:41:06.909Z,61.91
2022-12-20T08:43:38.044Z,61.84
2022-12-20T08:46:10.262Z,61.83
2022-12-20T08:48:41.261Z,61.85
2022-12-20T08:51:13.358Z,61.89
2022-12-20T08:53:43.815Z,61.70
2022-12-20T08:56:16.856Z,61.83
2022-12-20T08:58:48.192Z,61.83
2022-12-20T09:01:21.756Z,61.87
2022-12-20T09:03:52.345Z,61.97
2022-12-20T09:06:24.104Z,61.90
2022-12-20T09:08:55.832Z,61.91
2022-12-20T09:11:27.737Z,61.99
2022-12-20T09:13:59.524Z,62.06
2022-12-20T09:16:32.468Z,62.25
2022-12-20T09:19:06.098Z,62.09
2022-12-20T09:21:37.807Z,61.94
2022-12-20T09:24:10.365Z,61.98
2022-12-20T09:26:41.808Z,61.75
2022-12-20T09:29:12.225Z,61.81
2022-12-20T09:31:43.460Z,61.44
2022-12-20T09:34:14.380Z,61.67
2022-12-20T09:36:44.873Z,61.60
2022-12-20T09:39:15.349Z,61.53
2022-12-20T09:41:47.185Z,61.32
2022-12-20T09:44:25.598Z,61.44
2022-12-20T09:47:09.752Z,61.35
2022-12-20T09:49:42.006Z,61.40
2022-12-20T09:52:33.121Z,61.13
2022-12-20T09:55:18.613Z,61.26
2022-12-20T09:58:00.793Z,61.43
2022-12-20T10:00:36.697Z,61.00
2022-12-20T10:03:10.483Z,60.88
2022-12-20T10:05:50.305Z,60.76
2022-12-20T10:08:35.992Z,60.88
2022-12-20T10:11:16.693Z,60.61
2022-12-20T10:14:03.059Z,60.69
2022-12-20T10:16:43.603Z,60.47
2022-12-20T10:19:35.780Z,60.44
2022-12-20T10:22:12.577Z,60.28
2022-12-20T10:24:52.489Z,60.37
2022-12-20T10:27:24.160Z,60.63
2022-12-20T10:29:54.653Z,60.35
2022-12-20T10:32:26.959Z,60.20
2022-12-20T10:35:13.059Z,60.48
2022-12-20T10:38:08.505Z,60.06
2022-12-20T10:43:41.678Z,60.03
2022-12-20T10:46:14.375Z,59.98
2022-12-20T10:48:46.637Z,59.70
2022-12-20T10:51:19.648Z,59.82
2022-12-20T10:54:01.199Z,59.55
2022-12-20T10:56:34.231Z,59.52
2022-12-20T10:59:22.729Z,59.34
2022-12-20T11:01:53.566Z,59.33
2022-12-20T11:04:31.113Z,59.30
2022-12-20T11:07:03.424Z,59.32
2022-12-20T11:09:37.057Z,59.15
2022-12-20T11:12:13.704Z,59.38
2022-12-20T11:14:46.809Z,58.93
2022-12-20T11:17:33.407Z,59.09
2022-12-20T11:20:27.876Z,59.14
2022-12-20T11:23:11.437Z,59.16
2022-12-20T11:25:55.055Z,59.29
2022-12-20T11:28:41.881Z,59.14
2022-12-20T11:31:21.714Z,59.16
2022-12-20T11:34:04.529Z,59.20
2022-12-20T11:36:58.806Z,58.76
2022-12-20T11:39:35.988Z,58.92
2022-12-20T11:42:14.752Z,58.55
2022-12-20T11:44:57.964Z,58.64
2022-12-20T11:47:49.398Z,58.09
2022-12-20T11:50:50.061Z,58.22
2022-12-20T11:53:26.800Z,57.88
2022-12-20T11:56:02.867Z,57.52
2022-12-20T11:58:43.737Z,57.20
2022-12-20T12:01:19.008Z,56.84
2022-12-20T12:04:00.461Z,56.54
2022-12-20T12:06:34.731Z,56.57
2022-12-20T12:09:16.721Z,56.40
2022-12-20T12:12:09.496Z,56.35
2022-12-20T12:14:51.434Z,56.24
2022-12-20T12:17:29.931Z,56.66
2022-12-20T12:20:15.744Z,56.39
2022-12-20T12:22:48.736Z,56.33
2022-12-20T12:25:20.797Z,56.87
2022-12-20T12:27:51.281Z,56.37
2022-12-20T12:30:22.552Z,56.69
2022-12-20T12:32:58.479Z,56.73
2022-12-20T12:35:53.732Z,56.58
2022-12-20T12:39:01.717Z,56.50
2022-12-20T12:42:08.716Z,56.79
2022-12-20T12:44:47.847Z,56.80
2022-12-20T12:47:24.852Z,57.03
2022-12-20T12:49:58.097Z,57.08
2022-12-20T12:52:51.388Z,57.07
2022-12-20T12:55:40.983Z,57.46
2022-12-20T12:58:32.172Z,57.09
2022-12-20T13:01:05.530Z,57.28
2022-12-20T13:03:42.319Z,57.30
2022-12-20T13:06:56.175Z,57.44
2022-12-20T13:09:41.571Z,57.24
2022-12-20T13:12:48.767Z,57.32
2022-12-20T13:16:06.492Z,57.55
2022-12-20T13:18:36.979Z,57.29
2022-12-20T13:21:37.210Z,57.25
2022-12-20T13:24:46.896Z,57.14
2022-12-20T13:27:34.844Z,57.36
2022-12-20T13:30:30.525Z,57.63
2022-12-20T13:33:39.215Z,57.78
2022-12-20T13:36:34.905Z,57.51
2022-12-20T13:39:28.651Z,57.87
2022-12-20T13:42:19.015Z,58.03
2022-12-20T13:44:51.548Z,57.95
2022-12-20T13:47:44.520Z,58.05
2022-12-20T13:50:41.052Z,58.07
2022-12-20T13:53:20.293Z,58.42
2022-12-20T13:55:51.486Z,58.45
2022-12-20T13:58:26.341Z,58.71
2022-12-20T14:01:07.492Z,58.56
2022-12-20T14:03:46.152Z,58.95
2022-12-20T14:06:26.096Z,58.75
2022-12-20T14:08:57.189Z,58.84
2022-12-20T14:11:28.807Z,59.20
2022-12-20T14:14:00.756Z,59.42
2022-12-20T14:16:33.305Z,59.42
2022-12-20T14:19:08.483Z,59.49
2022-12-20T14:21:41.592Z,59.56
2022-12-20T14:24:16.809Z,59.80
2022-12-20T14:26:49.759Z,59.93
2022-12-20T14:29:25.368Z,59.81
2022-12-20T14:31:57.267Z,59.94
2022-12-20T14:34:34.030Z,60.09
2022-12-20T14:37:31.564Z,60.42
2022-12-20T14:40:16.293Z,60.18
2022-12-20T14:42:47.177Z,60.51
2022-12-20T14:45:23.382Z,60.77
2022-12-20T14:47:59.848Z,60.85
2022-12-20T14:50:36.054Z,61.13
2022-12-20T14:53:17.019Z,60.91
2022-12-20T14:55:49.302Z,61.24
2022-12-20T14:58:31.410Z,61.18
2022-12-20T15:01:05.221Z,61.26
2022-12-20T15:03:35.889Z,61.54
2022-12-20T15:06:06.890Z,61.55
2022-12-20T15:08:40.578Z,61.57
2022-12-20T15:11:22.707Z,61.44
2022-12-20T15:13:56.079Z,61.70
2022-12-20T15:16:29.324Z,62.17
2022-12-20T15:19:02.755Z,62.28
2022-12-20T15:21:35.750Z,62.16
2022-12-20T15:24:11.368Z,61.93
2022-12-20T15:26:42.253Z,61.92
2022-12-20T15:29:18.703Z,61.74
2022-12-20T15:31:51.384Z,61.66
2022-12-20T15:34:31.251Z,61.54
2022-12-20T15:37:02.640Z,61.61
2022-12-20T15:39:34.343Z,61.35
2022-12-20T15:42:06.791Z,61.56
2022-12-20T15:44:37.048Z,61.43
2022-12-20T15:47:07.729Z,61.56
2022-12-20T15:49:38.254Z,61.36
2022-12-20T15:52:11.758Z,61.59
2022-12-20T15:54:42.199Z,61.49
2022-12-20T15:57:16.019Z,61.80
2022-12-20T16:00:06.115Z,61.64
2022-12-20T16:02:43.006Z,61.69
2022-12-20T16:05:14.701Z,61.77
2022-12-20T16:07:45.300Z,61.80
2022-12-20T16:10:18.286Z,61.78
2022-12-20T16:12:48.782Z,62.06
2022-12-20T16:15:24.497Z,62.06
2022-12-20T16:17:55.097Z,62.01
2022-12-20T16:20:27.521Z,61.90
2022-12-20T16:22:58.096Z,61.84
2022-12-20T16:25:31.787Z,62.19
2022-12-20T16:28:02.355Z,62.15
2022-12-20T16:30:33.385Z,62.22
2022-12-20T16:33:04.110Z,62.28
2022-12-20T16:35:37.401Z,62.31
2022-12-20T16:38:07.918Z,62.40
2022-12-20T16:40:38.380Z,62.38
2022-12-20T16:43:14.176Z,62.54
2022-12-20T16:45:44.853Z,62.29
2022-12-20T16:48:15.372Z,62.64
2022-12-20T16:50:47.062Z,62.51
2022-12-20T16:53:19.303Z,62.54
2022-12-20T16:55:49.792Z,62.39
2022-12-20T16:58:44.988Z,62.56
2022-12-20T17:01:18.406Z,62.58
2022-12-20T17:03:49.630Z,62.75
2022-12-20T17:06:20.844Z,62.75
2022-12-20T17:08:51.716Z,62.89
2022-12-20T17:11:24.281Z,62.69
2022-12-20T17:13:56.432Z,62.63
2022-12-20T17:16:28.538Z,62.62
2022-12-20T17:19:00.440Z,62.65
2022-12-20T17:24:25.583Z,62.54
2022-12-20T17:26:56.433Z,62.35
2022-12-20T17:29:27.069Z,62.31
2022-12-20T17:31:57.701Z,62.64
2022-12-20T17:34:30.322Z,62.32
2022-12-20T17:37:01.168Z,62.32
2022-12-20T17:39:31.616Z,62.49
2022-12-20T17:42:02.480Z,62.38
2022-12-20T17:44:33.285Z,62.43
2022-12-20T17:47:04.337Z,62.47
2022-12-20T17:49:35.119Z,62.51
2022-12-20T17:52:05.873Z,62.50
2022-12-20T17:54:40.028Z,62.41
2022-12-20T17:57:15.782Z,62.50
2022-12-20T17:59:47.010Z,62.65
2022-12-20T18:02:23.856Z,62.55
2022-12-20T18:04:54.805Z,62.74
2022-12-20T18:07:25.661Z,62.79
2022-12-20T18:09:56.129Z,62.82
2022-12-20T18:12:26.559Z,62.84
2022-12-20T18:14:57.009Z,62.76
2022-12-20T18:17:27.688Z,62.84
2022-12-20T18:19:58.280Z,62.76
2022-12-20T18:22:28.702Z,62.81
2022-12-20T18:24:59.376Z,62.95
2022-12-20T18:27:31.035Z,62.85
2022-12-20T18:30:01.673Z,62.78
2022-12-20T18:32:32.193Z,62.82
2022-12-20T18:35:02.610Z,62.83
2022-12-20T18:37:33.083Z,63.12
2022-12-20T18:40:04.090Z,63.12
2022-12-20T18:42:34.497Z,63.16
2022-12-20T18:45:07.151Z,63.01
2022-12-20T18:47:38.448Z,63.14
2022-12-20T18:50:13.220Z,62.98
2022-12-20T18:52:44.465Z,62.94
2022-12-20T18:55:18.116Z,63.16
2022-12-20T18:57:48.600Z,63.10
2022-12-20T19:00:21.612Z,62.89
2022-12-20T19:02:52.184Z,63.04
2022-12-20T19:05:24.857Z,62.96
2022-12-20T19:07:54.199Z,62.95
2022-12-20T19:10:25.032Z,62.84
2022-12-20T19:12:59.379Z,62.92
2022-12-20T19:15:32.743Z,62.81
2022-12-20T19:18:03.231Z,62.93
2022-12-20T19:20:35.899Z,62.83
2022-12-20T19:23:06.643Z,62.97
2022-12-20T19:25:38.492Z,62.83
2022-12-20T19:28:09.138Z,62.68
2022-12-20T19:30:39.679Z,62.82
2022-12-20T19:33:10.286Z,62.85
2022-12-20T19:35:56.805Z,63.06
2022-12-20T19:38:27.639Z,62.85
2022-12-20T19:40:58.119Z,62.97
2022-12-20T19:43:28.555Z,62.91
2022-12-20T19:46:00.316Z,62.88
2022-12-20T19:48:33.051Z,62.78
2022-12-20T19:51:10.089Z,62.95
2022-12-20T19:53:42.292Z,62.78
2022-12-20T19:56:14.594Z,62.79
2022-12-20T19:58:46.061Z,62.74
2022-12-20T20:01:18.019Z,62.75
2022-12-20T20:03:48.745Z,62.82
2022-12-20T20:06:20.437Z,62.93
2022-12-20T20:08:51.335Z,62.84
2022-12-20T20:11:22.034Z,62.77
2022-12-20T20:13:52.789Z,62.83
2022-12-20T20:16:23.918Z,62.75
2022-12-20T20:18:54.873Z,62.82
2022-12-20T20:21:26.027Z,62.89
2022-12-20T20:23:57.566Z,62.69
2022-12-20T20:26:31.741Z,62.86
2022-12-20T20:29:03.707Z,62.76
2022-12-20T20:31:34.176Z,62.75
2022-12-20T20:34:04.763Z,62.76
2022-12-20T20:36:35.261Z,62.78
2022-12-20T20:39:06.890Z,62.89
2022-12-20T20:41:37.364Z,62.85
2022-12-20T20:44:07.918Z,62.79
2022-12-20T20:46:38.790Z,62.77
2022-12-20T20:49:09.406Z,62.83
2022-12-20T20:51:40.058Z,62.68
2022-12-20T20:54:10.516Z,62.57
2022-12-20T20:56:40.955Z,62.79
2022-12-20T20:59:17.295Z,62.67
2022-12-20T21:01:48.658Z,62.79
2022-12-20T21:04:21.403Z,62.79
2022-12-20T21:06:52.245Z,62.66
2022-12-20T21:09:22.720Z,62.62
2022-12-20T21:11:53.384Z,62.76
2022-12-20T21:14:51.674Z,62.78
2022-12-20T21:17:14.445Z,62.68
2022-12-20T21:19:44.911Z,62.65
2022-12-20T21:22:15.565Z,62.67
2022-12-20T21:24:46.282Z,62.70
2022-12-20T21:27:16.783Z,62.67
2022-12-20T21:29:47.211Z,62.77
2022-12-20T21:32:17.631Z,62.52
2022-12-20T21:34:48.065Z,62.44
2022-12-20T21:37:19.151Z,62.52
2022-12-20T21:39:49.699Z,62.68
2022-12-20T21:42:20.314Z,62.56
2022-12-20T21:44:50.745Z,62.55
2022-12-20T21:47:21.293Z,62.48
2022-12-20T21:49:51.748Z,62.56
2022-12-20T21:52:22.185Z,62.59
2022-12-20T21:54:52.685Z,62.53
2022-12-20T21:57:23.103Z,62.56
2022-12-20T21:59:53.630Z,62.63
2022-12-20T22:02:24.269Z,62.70
2022-12-20T22:04:54.820Z,62.73
2022-12-20T22:07:25.303Z,62.88
2022-12-20T22:09:55.734Z,62.81
2022-12-20T22:12:27.513Z,63.06
2022-12-20T22:14:57.922Z,63.00
2022-12-20T22:17:29.635Z,63.11
2022-12-20T22:20:00.150Z,63.12
2022-12-20T22:22:30.980Z,63.13
2022-12-20T22:25:01.377Z,63.27
2022-12-20T22:27:31.851Z,62.98
2022-12-20T22:30:02.394Z,63.16
2022-12-20T22:32:33.672Z,63.24
2022-12-20T22:35:04.217Z,63.28
2022-12-20T22:37:34.635Z,63.34
2022-12-20T22:40:06.500Z,63.35
2022-12-20T22:42:39.481Z,63.54
2022-12-20T22:45:12.087Z,63.51
2022-12-20T22:50:32.291Z,63.46
2022-12-20T22:53:02.746Z,63.46
2022-12-20T22:55:35.476Z,63.44
2022-12-20T22:58:05.999Z,63.46
2022-12-20T23:00:36.403Z,63.48
2022-12-20T23:03:07.074Z,63.46
2022-12-20T23:05:38.223Z,63.46
2022-12-20T23:08:08.753Z,63.42
2022-12-20T23:10:59.451Z,63.49
2022-12-20T23:13:47.536Z,63.52
2022-12-20T23:16:18.085Z,63.39
2022-12-20T23:18:48.611Z,63.46
2022-12-20T23:21:36.555Z,63.42
2022-12-20T23:24:07.930Z,63.35
2022-12-20T23:26:39.303Z,63.52
2022-12-20T23:29:11.421Z,63.43
2022-12-20T23:31:42.207Z,63.37
2022-12-20T23:34:12.814Z,63.55
2022-12-20T23:36:43.442Z,63.52
2022-12-20T23:39:13.881Z,63.56
2022-12-20T23:41:44.358Z,63.80
2022-12-20T23:44:15.133Z,63.65
2022-12-20T23:46:45.566Z,63.75
2022-12-20T23:49:15.991Z,63.79
2022-12-20T23:51:46.394Z,63.80
2022-12-20T23:54:19.657Z,63.75
2022-12-20T23:56:50.589Z,63.95
2022-12-20T23:59:21.063Z,63.90
